createdAt,value
2023-10-20T00:00:30.608Z,68.02
2023-10-20T00:02:57.969Z,67.90
2023-10-20T00:05:25.277Z,67.92
2023-10-20T00:07:54.692Z,68.11
2023-10-20T00:10:22.220Z,68.11
2023-10-20T00:12:50.230Z,68.13
2023-10-20T00:15:21.312Z,68.24
2023-10-20T00:17:48.854Z,68.08
2023-10-20T00:20:16.333Z,68.25
2023-10-20T00:22:43.671Z,68.26
2023-10-20T00:25:13.682Z,68.43
2023-10-20T00:27:42.700Z,68.29
2023-10-20T00:30:10.944Z,68.24
2023-10-20T00:32:41.837Z,68.42
2023-10-20T00:35:10.818Z,68.26
2023-10-20T00:37:38.412Z,68.32
2023-10-20T00:40:09.027Z,68.35
2023-10-20T00:42:37.236Z,68.43
2023-10-20T00:45:05.416Z,68.34
2023-10-20T00:47:33.391Z,68.36
2023-10-20T00:50:01.039Z,68.33
2023-10-20T00:52:30.350Z,68.48
2023-10-20T00:54:58.378Z,68.53
2023-10-20T00:57:27.979Z,68.41
2023-10-20T00:59:55.323Z,68.58
2023-10-20T01:02:22.838Z,68.63
2023-10-20T01:04:50.244Z,68.54
2023-10-20T01:07:17.469Z,68.41
2023-10-20T01:09:45.000Z,68.33
2023-10-20T01:12:12.545Z,68.32
2023-10-20T01:14:40.103Z,68.39
2023-10-20T01:17:07.514Z,68.39
2023-10-20T01:19:34.848Z,68.39
2023-10-20T01:22:02.128Z,68.29
2023-10-20T01:24:31.253Z,68.28
2023-10-20T01:27:00.239Z,68.01
2023-10-20T01:29:27.785Z,68.33
2023-10-20T01:31:55.113Z,68.30
2023-10-20T01:34:22.998Z,68.31
2023-10-20T01:36:50.405Z,68.24
2023-10-20T01:39:17.760Z,68.08
2023-10-20T01:41:45.253Z,68.28
2023-10-20T01:44:14.552Z,68.24
2023-10-20T01:46:50.834Z,68.22
2023-10-20T01:49:21.251Z,68.37
2023-10-20T01:51:48.617Z,68.33
2023-10-20T01:54:15.886Z,68.28
2023-10-20T01:56:43.217Z,68.45
2023-10-20T01:59:10.861Z,68.42
2023-10-20T02:01:40.043Z,68.47
2023-10-20T02:04:07.312Z,68.44
2023-10-20T02:06:34.959Z,68.50
2023-10-20T02:09:03.135Z,68.52
2023-10-20T02:11:30.598Z,68.68
2023-10-20T02:13:58.597Z,68.79
2023-10-20T02:16:26.038Z,68.80
2023-10-20T02:18:53.363Z,68.83
2023-10-20T02:21:20.954Z,68.83
2023-10-20T02:23:48.330Z,68.84
2023-10-20T02:26:18.298Z,68.87
2023-10-20T02:28:45.732Z,68.97
2023-10-20T02:31:19.146Z,68.96
2023-10-20T02:33:46.911Z,69.04
2023-10-20T02:36:18.453Z,69.00
2023-10-20T02:38:46.210Z,68.92
2023-10-20T02:41:15.366Z,68.94
2023-10-20T02:43:42.968Z,68.95
2023-10-20T02:46:10.950Z,69.16
2023-10-20T02:48:38.415Z,69.01
2023-10-20T02:51:09.232Z,69.01
2023-10-20T02:53:36.540Z,68.95
2023-10-20T02:56:10.347Z,68.98
2023-10-20T02:58:37.612Z,69.05
2023-10-20T03:01:06.836Z,69.00
2023-10-20T03:03:34.717Z,69.10
2023-10-20T03:06:03.331Z,69.23
2023-10-20T03:08:31.502Z,69.33
2023-10-20T03:10:58.873Z,69.29
2023-10-20T03:13:26.950Z,69.31
2023-10-20T03:15:55.389Z,69.31
2023-10-20T03:18:22.703Z,69.42
2023-10-20T03:20:50.163Z,69.45
2023-10-20T03:23:18.189Z,69.65
2023-10-20T03:25:45.461Z,69.53
2023-10-20T03:28:12.804Z,69.60
2023-10-20T03:30:43.324Z,69.69
2023-10-20T03:33:14.869Z,69.72
2023-10-20T03:35:42.334Z,69.75
2023-10-20T03:38:10.448Z,69.91
2023-10-20T03:40:39.242Z,69.95
2023-10-20T03:43:07.950Z,69.81
2023-10-20T03:45:50.666Z,70.25
2023-10-20T03:48:18.249Z,70.30
2023-10-20T03:50:47.742Z,70.21
2023-10-20T03:53:28.365Z,70.26
2023-10-20T03:56:02.782Z,70.26
2023-10-20T03:58:30.726Z,70.18
2023-10-20T04:00:59.018Z,70.07
2023-10-20T04:03:29.315Z,70.18
2023-10-20T04:05:56.747Z,70.21
2023-10-20T04:08:24.498Z,69.83
2023-10-20T04:10:58.040Z,69.93
2023-10-20T04:13:25.461Z,69.88
2023-10-20T04:15:54.040Z,69.71
2023-10-20T04:18:21.861Z,69.64
2023-10-20T04:20:52.147Z,69.61
2023-10-20T04:23:19.671Z,69.61
2023-10-20T04:25:56.590Z,69.67
2023-10-20T04:28:34.505Z,69.82
2023-10-20T04:31:20.503Z,69.60
2023-10-20T04:34:06.138Z,69.75
2023-10-20T04:36:51.845Z,69.70
2023-10-20T04:39:37.908Z,69.72
2023-10-20T04:42:23.571Z,69.85
2023-10-20T04:45:19.656Z,69.78
2023-10-20T04:48:06.091Z,69.60
2023-10-20T04:50:52.067Z,69.72
2023-10-20T04:53:37.866Z,69.86
2023-10-20T04:56:17.398Z,69.77
2023-10-20T04:58:50.648Z,69.86
2023-10-20T05:01:22.500Z,69.73
2023-10-20T05:03:54.923Z,69.86
2023-10-20T05:06:26.927Z,69.77
2023-10-20T05:08:54.807Z,69.87
2023-10-20T05:11:22.168Z,69.93
2023-10-20T05:13:49.494Z,69.82
2023-10-20T05:16:17.386Z,69.87
2023-10-20T05:18:45.967Z,69.91
2023-10-20T05:21:13.655Z,69.90
2023-10-20T05:23:42.390Z,69.68
2023-10-20T05:26:10.593Z,69.73
2023-10-20T05:28:38.102Z,69.82
2023-10-20T05:31:05.495Z,69.93
2023-10-20T05:33:32.962Z,70.05
2023-10-20T05:36:00.872Z,70.19
2023-10-20T05:38:28.369Z,69.87
2023-10-20T05:40:59.686Z,70.07
2023-10-20T05:43:28.115Z,69.99
2023-10-20T05:45:55.648Z,69.98
2023-10-20T05:48:23.001Z,69.99
2023-10-20T05:50:55.503Z,69.82
2023-10-20T05:53:22.880Z,69.79
2023-10-20T05:55:50.241Z,69.89
2023-10-20T05:58:17.549Z,69.92
2023-10-20T06:01:01.817Z,69.51
2023-10-20T06:03:30.421Z,69.45
2023-10-20T06:06:01.849Z,69.19
2023-10-20T06:08:30.485Z,69.15
2023-10-20T06:11:04.845Z,69.25
2023-10-20T06:13:37.070Z,69.45
2023-10-20T06:16:09.946Z,69.44
2023-10-20T06:18:38.127Z,69.54
2023-10-20T06:21:06.028Z,69.44
2023-10-20T06:23:34.372Z,69.23
2023-10-20T06:26:01.688Z,69.17
2023-10-20T06:28:29.068Z,69.28
2023-10-20T06:31:02.072Z,69.05
2023-10-20T06:33:35.830Z,68.63
2023-10-20T06:36:12.469Z,68.66
2023-10-20T06:38:45.956Z,68.56
2023-10-20T06:41:16.488Z,68.25
2023-10-20T06:43:44.860Z,68.02
2023-10-20T06:46:12.264Z,67.94
2023-10-20T06:48:39.738Z,68.03
2023-10-20T06:51:07.060Z,67.81
2023-10-20T06:53:35.332Z,67.86
2023-10-20T06:56:15.059Z,67.62
2023-10-20T06:58:43.189Z,67.55
2023-10-20T07:01:10.591Z,67.47
2023-10-20T07:03:38.008Z,67.60
2023-10-20T07:06:08.622Z,67.23
2023-10-20T07:08:36.238Z,67.31
2023-10-20T07:11:06.289Z,67.40
2023-10-20T07:13:33.778Z,67.41
2023-10-20T07:16:02.031Z,67.31
2023-10-20T07:18:29.700Z,67.08
2023-10-20T07:20:58.432Z,67.09
2023-10-20T07:23:26.617Z,67.10
2023-10-20T07:25:54.771Z,67.23
2023-10-20T07:28:23.214Z,66.98
2023-10-20T07:30:51.174Z,66.88
2023-10-20T07:33:18.657Z,66.78
2023-10-20T07:35:46.169Z,66.64
2023-10-20T07:38:18.526Z,66.66
2023-10-20T07:40:46.187Z,66.56
2023-10-20T07:43:13.513Z,66.48
2023-10-20T07:45:42.003Z,66.23
2023-10-20T07:48:10.157Z,65.80
2023-10-20T07:50:37.837Z,65.84
2023-10-20T07:53:05.291Z,65.78
2023-10-20T07:55:32.602Z,65.86
2023-10-20T07:57:59.985Z,65.74
2023-10-20T08:00:27.407Z,65.66
2023-10-20T08:02:56.072Z,65.62
2023-10-20T08:05:27.330Z,65.39
2023-10-20T08:07:55.343Z,65.02
2023-10-20T08:10:25.195Z,64.77
2023-10-20T08:12:52.798Z,64.47
2023-10-20T08:15:20.713Z,64.09
2023-10-20T08:17:49.753Z,64.10
2023-10-20T08:20:17.818Z,63.93
2023-10-20T08:22:45.209Z,63.85
2023-10-20T08:25:12.849Z,63.76
2023-10-20T08:27:40.686Z,63.94
2023-10-20T08:30:08.510Z,63.79
2023-10-20T08:32:36.247Z,63.63
2023-10-20T08:35:04.855Z,63.82
2023-10-20T08:37:32.249Z,63.82
2023-10-20T08:39:59.565Z,64.01
2023-10-20T08:42:26.964Z,63.84
2023-10-20T08:44:54.488Z,63.28
2023-10-20T08:47:23.780Z,63.66
2023-10-20T08:49:52.121Z,63.69
2023-10-20T08:52:19.705Z,63.74
2023-10-20T08:54:49.269Z,63.78
2023-10-20T08:57:16.787Z,63.89
2023-10-20T08:59:51.991Z,63.84
2023-10-20T09:02:20.156Z,63.83
2023-10-20T09:04:53.360Z,63.54
2023-10-20T09:07:23.117Z,63.70
2023-10-20T09:09:50.918Z,63.85
2023-10-20T09:12:18.177Z,64.08
2023-10-20T09:14:45.653Z,64.19
2023-10-20T09:17:26.195Z,64.37
2023-10-20T09:20:04.203Z,64.37
2023-10-20T09:22:31.602Z,64.30
2023-10-20T09:24:58.903Z,64.37
2023-10-20T09:27:26.551Z,64.85
2023-10-20T09:29:55.633Z,64.88
2023-10-20T09:32:23.194Z,64.84
2023-10-20T09:34:52.371Z,64.81
2023-10-20T09:37:24.596Z,65.09
2023-10-20T09:39:54.114Z,65.11
2023-10-20T09:42:25.156Z,65.20
2023-10-20T09:45:03.760Z,65.10
2023-10-20T09:47:32.057Z,65.26
2023-10-20T09:50:01.194Z,65.25
2023-10-20T09:52:30.945Z,65.60
2023-10-20T09:54:58.829Z,65.54
2023-10-20T09:57:27.933Z,65.59
2023-10-20T09:59:55.738Z,65.58
2023-10-20T10:02:30.363Z,65.30
2023-10-20T10:04:58.675Z,65.57
2023-10-20T10:07:27.536Z,65.66
2023-10-20T10:09:56.365Z,65.66
2023-10-20T10:12:25.155Z,65.75
2023-10-20T10:15:04.457Z,65.78
2023-10-20T10:17:31.870Z,66.00
2023-10-20T10:20:00.296Z,66.03
2023-10-20T10:22:28.934Z,66.00
2023-10-20T10:24:56.934Z,66.33
2023-10-20T10:27:31.053Z,66.35
2023-10-20T10:30:02.794Z,66.38
2023-10-20T10:32:35.737Z,66.33
2023-10-20T10:35:05.550Z,66.25
2023-10-20T10:37:34.662Z,66.04
2023-10-20T10:40:15.605Z,66.17
2023-10-20T10:42:44.306Z,66.16
2023-10-20T10:45:15.216Z,65.99
2023-10-20T10:47:44.794Z,65.75
2023-10-20T10:50:12.422Z,65.54
2023-10-20T10:52:40.354Z,65.24
2023-10-20T10:55:07.878Z,65.18
2023-10-20T10:57:36.416Z,65.08
2023-10-20T11:00:04.908Z,65.00
2023-10-20T11:02:32.890Z,64.91
2023-10-20T11:05:01.434Z,64.74
2023-10-20T11:07:28.876Z,64.74
2023-10-20T11:09:56.482Z,64.79
2023-10-20T11:12:23.805Z,64.95
2023-10-20T11:14:52.061Z,64.98
2023-10-20T11:17:20.429Z,64.81
2023-10-20T11:19:48.036Z,64.98
2023-10-20T11:22:16.986Z,65.03
2023-10-20T11:24:51.768Z,65.14
2023-10-20T11:27:19.936Z,65.11
2023-10-20T11:29:58.340Z,65.21
2023-10-20T11:32:27.528Z,65.11
2023-10-20T11:34:55.051Z,65.00
2023-10-20T11:37:22.479Z,64.97
2023-10-20T11:39:50.063Z,64.96
2023-10-20T11:42:17.677Z,64.75
2023-10-20T11:44:44.967Z,64.61
2023-10-20T11:47:12.308Z,64.63
2023-10-20T11:49:39.820Z,64.53
2023-10-20T11:52:09.834Z,64.60
2023-10-20T11:54:37.495Z,64.51
2023-10-20T11:57:04.835Z,64.48
2023-10-20T11:59:32.359Z,64.68
2023-10-20T12:01:59.834Z,64.59
2023-10-20T12:04:27.334Z,64.66
2023-10-20T12:06:54.735Z,64.60
2023-10-20T12:09:22.205Z,64.57
2023-10-20T12:11:49.562Z,64.64
2023-10-20T12:14:16.894Z,64.66
2023-10-20T12:16:44.406Z,64.38
2023-10-20T12:19:12.265Z,64.54
2023-10-20T12:21:39.874Z,64.72
2023-10-20T12:24:07.392Z,64.63
2023-10-20T12:26:34.819Z,64.67
2023-10-20T12:29:02.131Z,64.63
2023-10-20T12:31:32.286Z,64.71
2023-10-20T12:33:59.909Z,64.43
2023-10-20T12:36:32.582Z,64.52
2023-10-20T12:39:01.703Z,64.61
2023-10-20T12:41:29.302Z,64.60
2023-10-20T12:43:56.622Z,64.49
2023-10-20T12:46:24.100Z,64.66
2023-10-20T12:48:52.121Z,64.64
2023-10-20T12:51:20.320Z,64.87
2023-10-20T12:53:47.908Z,64.94
2023-10-20T12:56:15.235Z,64.57
2023-10-20T12:58:42.726Z,64.78
2023-10-20T13:01:10.935Z,64.76
2023-10-20T13:03:39.635Z,64.96
2023-10-20T13:06:08.162Z,64.93
2023-10-20T13:08:35.745Z,64.89
2023-10-20T13:11:03.217Z,64.94
2023-10-20T13:13:33.813Z,65.22
2023-10-20T13:16:03.553Z,65.17
2023-10-20T13:18:32.205Z,64.95
2023-10-20T13:21:02.766Z,65.22
2023-10-20T13:23:30.313Z,65.39
2023-10-20T13:26:01.462Z,65.46
2023-10-20T13:28:28.760Z,65.51
2023-10-20T13:31:09.297Z,65.92
2023-10-20T13:33:37.499Z,65.78
2023-10-20T13:36:05.890Z,65.97
2023-10-20T13:38:33.959Z,65.94
2023-10-20T13:41:01.274Z,65.98
2023-10-20T13:43:28.524Z,66.04
2023-10-20T13:45:55.998Z,65.87
2023-10-20T13:48:23.401Z,65.95
2023-10-20T13:50:51.088Z,66.07
2023-10-20T13:53:18.349Z,66.37
2023-10-20T13:55:46.157Z,66.43
2023-10-20T13:58:13.495Z,66.56
2023-10-20T14:00:41.285Z,66.64
2023-10-20T14:03:09.155Z,66.43
2023-10-20T14:05:36.802Z,66.61
2023-10-20T14:08:04.242Z,66.65
2023-10-20T14:10:32.426Z,66.78
2023-10-20T14:12:59.838Z,66.78
2023-10-20T14:15:27.114Z,66.81
2023-10-20T14:17:54.599Z,66.76
2023-10-20T14:20:22.164Z,66.82
2023-10-20T14:22:49.640Z,67.19
2023-10-20T14:25:17.059Z,66.99
2023-10-20T14:27:44.352Z,67.08
2023-10-20T14:30:11.981Z,67.06
2023-10-20T14:32:39.469Z,67.11
2023-10-20T14:35:08.091Z,67.33
2023-10-20T14:37:35.504Z,67.21
2023-10-20T14:40:02.912Z,67.30
2023-10-20T14:42:30.349Z,67.24
2023-10-20T14:44:57.689Z,67.62
2023-10-20T14:47:27.014Z,67.66
2023-10-20T14:49:55.275Z,67.63
2023-10-20T14:52:22.558Z,68.09
2023-10-20T14:54:50.369Z,67.85
2023-10-20T14:57:17.730Z,67.60
2023-10-20T14:59:45.155Z,67.58
2023-10-20T15:02:12.572Z,67.63
2023-10-20T15:04:40.195Z,67.72
2023-10-20T15:07:07.933Z,67.79
2023-10-20T15:09:35.774Z,68.15
2023-10-20T15:12:03.519Z,67.86
2023-10-20T15:14:31.030Z,68.09
2023-10-20T15:16:58.557Z,68.30
2023-10-20T15:19:26.148Z,68.27
2023-10-20T15:21:53.843Z,68.31
2023-10-20T15:24:21.413Z,68.28
2023-10-20T15:26:49.073Z,68.44
2023-10-20T15:29:16.772Z,68.40
2023-10-20T15:31:44.681Z,68.39
2023-10-20T15:34:11.997Z,68.53
2023-10-20T15:36:47.580Z,68.76
2023-10-20T15:39:16.070Z,68.84
2023-10-20T15:41:43.486Z,68.94
2023-10-20T15:44:11.137Z,69.15
2023-10-20T15:46:38.615Z,69.06
2023-10-20T15:49:06.069Z,68.90
2023-10-20T15:51:33.392Z,69.10
2023-10-20T15:54:00.985Z,69.38
2023-10-20T15:56:29.231Z,69.42
2023-10-20T15:58:56.762Z,69.68
2023-10-20T16:01:26.450Z,69.58
2023-10-20T16:03:54.174Z,69.87
2023-10-20T16:06:21.536Z,69.85
2023-10-20T16:08:48.972Z,69.81
2023-10-20T16:11:16.382Z,69.92
2023-10-20T16:13:43.704Z,69.95
2023-10-20T16:16:11.601Z,69.93
2023-10-20T16:18:39.177Z,70.10
2023-10-20T16:21:06.593Z,69.91
2023-10-20T16:23:34.019Z,70.17
2023-10-20T16:26:03.396Z,70.40
2023-10-20T16:28:30.739Z,70.29
2023-10-20T16:31:01.473Z,70.46
2023-10-20T16:33:29.055Z,70.21
2023-10-20T16:35:56.992Z,70.22
2023-10-20T16:38:24.529Z,70.58
2023-10-20T16:40:53.044Z,70.42
2023-10-20T16:43:20.380Z,69.87
2023-10-20T16:45:48.346Z,70.19
2023-10-20T16:48:15.953Z,70.29
2023-10-20T16:50:44.001Z,70.20
2023-10-20T16:53:14.125Z,70.12
2023-10-20T16:55:41.714Z,70.30
2023-10-20T16:58:09.140Z,70.39
2023-10-20T17:00:37.314Z,70.33
2023-10-20T17:03:06.660Z,70.48
2023-10-20T17:05:37.027Z,70.43
2023-10-20T17:08:04.488Z,70.40
2023-10-20T17:10:31.711Z,70.25
2023-10-20T17:12:59.031Z,70.51
2023-10-20T17:15:26.284Z,70.39
2023-10-20T17:17:53.716Z,70.12
2023-10-20T17:20:21.294Z,70.18
2023-10-20T17:22:48.836Z,70.25
2023-10-20T17:25:16.224Z,70.26
2023-10-20T17:27:43.642Z,70.21
2023-10-20T17:30:11.801Z,70.33
2023-10-20T17:32:39.697Z,70.00
2023-10-20T17:35:07.480Z,69.93
2023-10-20T17:37:34.724Z,70.21
2023-10-20T17:40:02.358Z,70.48
2023-10-20T17:42:30.981Z,70.37
2023-10-20T17:44:58.402Z,70.21
2023-10-20T17:47:27.528Z,70.57
2023-10-20T17:49:55.055Z,70.35
2023-10-20T17:52:22.511Z,70.18
2023-10-20T17:54:50.870Z,70.48
2023-10-20T17:57:18.147Z,70.32
2023-10-20T17:59:45.537Z,70.23
2023-10-20T18:02:12.855Z,70.11
2023-10-20T18:04:40.319Z,69.99
2023-10-20T18:07:07.580Z,70.24
2023-10-20T18:09:35.112Z,70.16
2023-10-20T18:12:02.495Z,70.21
2023-10-20T18:14:30.409Z,70.18
2023-10-20T18:16:58.078Z,70.45
2023-10-20T18:19:25.475Z,70.18
2023-10-20T18:21:52.733Z,70.45
2023-10-20T18:24:20.053Z,70.26
2023-10-20T18:26:47.696Z,70.41
2023-10-20T18:29:15.061Z,70.37
2023-10-20T18:31:42.398Z,70.60
2023-10-20T18:34:10.797Z,70.27
2023-10-20T18:36:38.877Z,70.54
2023-10-20T18:39:06.314Z,70.69
2023-10-20T18:41:33.888Z,70.75
2023-10-20T18:44:01.189Z,70.68
2023-10-20T18:46:28.523Z,70.87
2023-10-20T18:48:55.806Z,70.83
2023-10-20T18:51:23.152Z,70.68
2023-10-20T18:53:50.517Z,71.30
2023-10-20T18:56:17.942Z,70.89
2023-10-20T18:58:47.528Z,70.86
2023-10-20T19:01:15.125Z,71.02
2023-10-20T19:03:42.801Z,71.23
2023-10-20T19:06:10.335Z,71.04
2023-10-20T19:08:39.134Z,71.14
2023-10-20T19:11:09.314Z,71.44
2023-10-20T19:13:37.066Z,71.21
2023-10-20T19:16:06.062Z,71.33
2023-10-20T19:18:33.841Z,71.26
2023-10-20T19:21:02.754Z,71.32
2023-10-20T19:23:31.021Z,71.48
2023-10-20T19:26:02.521Z,71.18
2023-10-20T19:28:30.817Z,71.33
2023-10-20T19:31:01.755Z,71.21
2023-10-20T19:33:30.522Z,71.24
2023-10-20T19:36:08.923Z,70.92
2023-10-20T19:38:36.533Z,71.14
2023-10-20T19:41:03.866Z,71.15
2023-10-20T19:43:31.253Z,70.94
2023-10-20T19:45:59.096Z,71.02
2023-10-20T19:48:26.694Z,71.08
2023-10-20T19:50:54.329Z,70.92
2023-10-20T19:53:22.325Z,70.89
2023-10-20T19:55:49.645Z,70.88
2023-10-20T19:58:17.315Z,70.82
2023-10-20T20:00:45.706Z,70.96
2023-10-20T20:03:13.328Z,70.61
2023-10-20T20:05:40.718Z,70.78
2023-10-20T20:08:08.719Z,71.00
2023-10-20T20:10:36.240Z,70.71
2023-10-20T20:13:04.781Z,70.80
2023-10-20T20:15:32.263Z,70.78
2023-10-20T20:17:59.744Z,70.57
2023-10-20T20:20:27.107Z,70.71
2023-10-20T20:22:54.495Z,70.82
2023-10-20T20:25:21.862Z,70.63
2023-10-20T20:27:49.262Z,70.82
2023-10-20T20:30:16.772Z,70.38
2023-10-20T20:32:44.678Z,70.34
2023-10-20T20:35:12.240Z,70.18
2023-10-20T20:37:39.553Z,70.45
2023-10-20T20:40:08.978Z,70.33
2023-10-20T20:42:36.789Z,70.36
2023-10-20T20:45:04.489Z,70.50
2023-10-20T20:47:32.038Z,70.33
2023-10-20T20:49:59.589Z,70.53
2023-10-20T20:52:26.952Z,70.62
2023-10-20T20:54:56.604Z,70.38
2023-10-20T20:57:24.320Z,70.17
2023-10-20T20:59:51.664Z,70.37
2023-10-20T21:02:19.052Z,70.41
2023-10-20T21:04:46.467Z,70.33
2023-10-20T21:07:13.966Z,70.25
2023-10-20T21:09:41.186Z,70.28
2023-10-20T21:12:08.676Z,70.31
2023-10-20T21:14:36.134Z,70.27
2023-10-20T21:17:03.869Z,70.17
2023-10-20T21:19:31.205Z,70.05
2023-10-20T21:21:58.582Z,70.22
2023-10-20T21:24:25.837Z,70.12
2023-10-20T21:26:56.605Z,70.28
2023-10-20T21:29:26.347Z,70.10
2023-10-20T21:31:54.285Z,70.17
2023-10-20T21:34:21.718Z,70.17
2023-10-20T21:36:49.119Z,70.15
2023-10-20T21:39:16.849Z,70.31
2023-10-20T21:41:44.141Z,70.07
2023-10-20T21:44:11.659Z,70.22
2023-10-20T21:46:39.630Z,70.41
2023-10-20T21:49:07.552Z,70.15
2023-10-20T21:51:35.425Z,69.96
2023-10-20T21:54:03.342Z,70.47
2023-10-20T21:56:30.650Z,70.11
2023-10-20T21:58:57.924Z,70.15
2023-10-20T22:01:25.216Z,70.27
2023-10-20T22:03:52.611Z,70.19
2023-10-20T22:06:20.016Z,70.14
2023-10-20T22:08:47.523Z,70.34
2023-10-20T22:11:15.278Z,70.11
2023-10-20T22:13:42.644Z,70.17
2023-10-20T22:16:09.974Z,70.07
2023-10-20T22:18:37.461Z,70.08
2023-10-20T22:21:04.807Z,70.35
2023-10-20T22:23:32.193Z,70.19
2023-10-20T22:25:59.416Z,70.17
2023-10-20T22:28:26.773Z,70.11
2023-10-20T22:30:54.233Z,70.40
2023-10-20T22:33:21.838Z,70.17
2023-10-20T22:35:49.267Z,70.12
2023-10-20T22:38:16.666Z,70.55
2023-10-20T22:40:44.101Z,70.22
2023-10-20T22:43:11.482Z,70.19
2023-10-20T22:45:42.073Z,70.21
2023-10-20T22:48:09.515Z,70.48
2023-10-20T22:50:36.922Z,70.51
2023-10-20T22:53:04.508Z,70.48
2023-10-20T22:55:31.887Z,70.48
2023-10-20T22:57:59.179Z,70.41
2023-10-20T23:00:26.603Z,70.09
2023-10-20T23:02:53.962Z,70.22
2023-10-20T23:05:23.302Z,70.30
2023-10-20T23:07:51.290Z,70.33
2023-10-20T23:10:18.593Z,70.11
2023-10-20T23:12:46.121Z,70.35
2023-10-20T23:15:13.602Z,70.20
2023-10-20T23:17:41.223Z,70.32
2023-10-20T23:20:08.925Z,70.18
2023-10-20T23:22:36.418Z,70.26
2023-10-20T23:25:04.231Z,70.26
2023-10-20T23:27:31.677Z,70.36
2023-10-20T23:29:59.037Z,70.18
2023-10-20T23:32:26.565Z,70.07
2023-10-20T23:34:54.760Z,70.31
2023-10-20T23:37:22.145Z,70.26
2023-10-20T23:39:49.528Z,70.30
2023-10-20T23:42:16.955Z,70.20
2023-10-20T23:44:44.375Z,70.20
2023-10-20T23:47:11.749Z,70.43
2023-10-20T23:49:40.087Z,70.00
2023-10-20T23:52:07.580Z,70.21
2023-10-20T23:54:34.940Z,70.40
2023-10-20T23:57:02.313Z,70.30
2023-10-20T23:59:29.638Z,70.22
